createdAt,value
2022-08-26T00:01:56.852Z,20.72
2022-08-26T00:04:26.127Z,20.68
2022-08-26T00:06:55.566Z,20.85
2022-08-26T00:09:25.026Z,20.73
2022-08-26T00:11:54.361Z,20.83
2022-08-26T00:14:28.244Z,20.83
2022-08-26T00:16:58.606Z,20.68
2022-08-26T00:19:26.009Z,20.86
2022-08-26T00:21:53.189Z,20.92
2022-08-26T00:24:21.828Z,20.80
2022-08-26T00:26:49.861Z,20.70
2022-08-26T00:29:18.099Z,20.70
2022-08-26T00:31:45.798Z,20.62
2022-08-26T00:34:14.320Z,20.60
2022-08-26T00:36:43.689Z,20.71
2022-08-26T00:39:11.587Z,20.75
2022-08-26T00:41:40.453Z,20.64
2022-08-26T00:44:10.457Z,20.75
2022-08-26T00:46:46.994Z,20.71
2022-08-26T00:49:19.822Z,20.70
2022-08-26T00:51:56.957Z,20.79
2022-08-26T00:54:27.305Z,20.86
2022-08-26T00:56:57.722Z,20.92
2022-08-26T00:59:29.328Z,20.85
2022-08-26T01:02:02.808Z,20.83
2022-08-26T01:04:33.621Z,20.94
2022-08-26T01:07:01.494Z,20.91
2022-08-26T01:09:30.321Z,20.79
2022-08-26T01:12:00.748Z,20.87
2022-08-26T01:14:32.841Z,20.89
2022-08-26T01:17:03.090Z,20.85
2022-08-26T01:19:46.246Z,20.80
2022-08-26T01:22:38.775Z,20.90
2022-08-26T01:25:06.821Z,20.69
2022-08-26T01:27:35.507Z,20.83
2022-08-26T01:30:05.605Z,20.75
2022-08-26T01:32:34.468Z,20.83
2022-08-26T01:35:02.445Z,20.74
2022-08-26T01:37:36.821Z,20.71
2022-08-26T01:40:14.928Z,20.85
2022-08-26T01:42:44.609Z,20.82
2022-08-26T01:45:18.602Z,20.80
2022-08-26T01:47:50.100Z,20.83
2022-08-26T01:50:31.345Z,20.60
2022-08-26T01:53:03.994Z,20.74
2022-08-26T01:55:34.144Z,20.85
2022-08-26T01:58:05.613Z,20.75
2022-08-26T02:00:35.875Z,20.83
2022-08-26T02:03:18.065Z,20.88
2022-08-26T02:05:59.140Z,20.86
2022-08-26T02:08:39.327Z,20.65
2022-08-26T02:11:07.517Z,20.82
2022-08-26T02:13:39.959Z,20.85
2022-08-26T02:16:08.912Z,20.81
2022-08-26T02:18:39.123Z,20.82
2022-08-26T02:21:08.190Z,20.84
2022-08-26T02:23:35.916Z,20.90
2022-08-26T02:26:07.488Z,20.93
2022-08-26T02:28:45.415Z,20.82
2022-08-26T02:31:13.129Z,20.92
2022-08-26T02:33:43.177Z,20.74
2022-08-26T02:36:12.115Z,20.94
2022-08-26T02:38:40.939Z,20.86
2022-08-26T02:41:11.309Z,20.90
2022-08-26T02:43:38.555Z,20.84
2022-08-26T02:46:06.108Z,20.84
2022-08-26T02:48:33.657Z,20.88
2022-08-26T02:51:01.958Z,20.80
2022-08-26T02:53:31.930Z,20.83
2022-08-26T02:56:03.941Z,20.76
2022-08-26T02:58:31.867Z,20.90
2022-08-26T03:00:59.659Z,20.88
2022-08-26T03:03:28.954Z,20.67
2022-08-26T03:05:58.204Z,20.85
2022-08-26T03:08:25.380Z,20.85
2022-08-26T03:10:53.054Z,20.83
2022-08-26T03:13:20.475Z,20.69
2022-08-26T03:15:47.861Z,20.78
2022-08-26T03:18:16.154Z,20.63
2022-08-26T03:20:44.016Z,20.74
2022-08-26T03:23:12.584Z,20.70
2022-08-26T03:25:40.228Z,20.84
2022-08-26T03:28:07.845Z,20.86
2022-08-26T03:30:45.410Z,20.85
2022-08-26T03:33:14.062Z,20.85
2022-08-26T03:35:43.616Z,20.70
2022-08-26T03:38:11.782Z,20.82
2022-08-26T03:40:39.943Z,20.73
2022-08-26T03:43:10.205Z,20.84
2022-08-26T03:45:38.804Z,20.95
2022-08-26T03:48:06.796Z,21.04
2022-08-26T03:50:35.791Z,21.05
2022-08-26T03:53:03.905Z,21.10
2022-08-26T03:55:33.474Z,20.97
2022-08-26T03:58:02.163Z,20.92
2022-08-26T04:00:30.028Z,20.86
2022-08-26T04:02:57.651Z,21.07
2022-08-26T04:05:25.408Z,21.03
2022-08-26T04:07:52.740Z,20.90
2022-08-26T04:10:29.115Z,21.05
2022-08-26T04:12:59.278Z,21.03
2022-08-26T04:15:27.507Z,20.97
2022-08-26T04:17:55.792Z,21.13
2022-08-26T04:20:23.433Z,21.06
2022-08-26T04:22:51.353Z,21.22
2022-08-26T04:25:18.809Z,21.06
2022-08-26T04:27:48.544Z,21.03
2022-08-26T04:30:16.808Z,21.02
2022-08-26T04:32:44.981Z,21.13
2022-08-26T04:35:12.246Z,21.11
2022-08-26T04:37:39.723Z,21.19
2022-08-26T04:40:11.732Z,21.23
2022-08-26T04:42:39.063Z,21.09
2022-08-26T04:45:10.313Z,21.19
2022-08-26T04:47:38.912Z,21.44
2022-08-26T04:50:07.682Z,21.42
2022-08-26T04:52:36.829Z,21.40
2022-08-26T04:55:06.681Z,21.27
2022-08-26T04:57:36.473Z,21.48
2022-08-26T05:00:08.756Z,21.37
2022-08-26T05:02:36.511Z,21.51
2022-08-26T05:05:05.331Z,21.51
2022-08-26T05:07:33.263Z,21.56
2022-08-26T05:10:00.601Z,21.55
2022-08-26T05:12:29.758Z,21.52
2022-08-26T05:14:57.074Z,21.56
2022-08-26T05:17:24.706Z,21.47
2022-08-26T05:19:52.180Z,21.69
2022-08-26T05:22:20.265Z,21.69
2022-08-26T05:24:47.656Z,21.60
2022-08-26T05:27:15.809Z,21.76
2022-08-26T05:29:44.997Z,21.84
2022-08-26T05:32:12.436Z,21.76
2022-08-26T05:34:39.941Z,21.73
2022-08-26T05:37:11.504Z,21.93
2022-08-26T05:39:41.336Z,21.78
2022-08-26T05:42:11.143Z,21.99
2022-08-26T05:44:53.804Z,22.02
2022-08-26T05:47:24.393Z,22.20
2022-08-26T05:49:52.169Z,22.27
2022-08-26T05:52:20.281Z,22.27
2022-08-26T05:54:47.835Z,22.06
2022-08-26T05:57:16.013Z,21.99
2022-08-26T05:59:45.851Z,22.03
2022-08-26T06:02:13.425Z,22.01
2022-08-26T06:04:41.403Z,22.20
2022-08-26T06:07:11.590Z,22.42
2022-08-26T06:09:40.635Z,22.48
2022-08-26T06:12:07.917Z,22.64
2022-08-26T06:14:36.139Z,22.73
2022-08-26T06:17:05.096Z,22.77
2022-08-26T06:19:32.797Z,23.02
2022-08-26T06:22:23.526Z,23.21
2022-08-26T06:25:10.799Z,23.42
2022-08-26T06:27:38.606Z,23.37
2022-08-26T06:30:06.882Z,23.64
2022-08-26T06:32:34.410Z,23.27
2022-08-26T06:35:01.781Z,23.55
2022-08-26T06:37:29.415Z,23.45
2022-08-26T06:39:57.099Z,23.26
2022-08-26T06:42:25.188Z,23.56
2022-08-26T06:44:52.909Z,23.65
2022-08-26T06:47:20.643Z,23.65
2022-08-26T06:49:48.091Z,22.99
2022-08-26T06:52:22.512Z,23.14
2022-08-26T06:54:51.768Z,23.23
2022-08-26T06:57:20.690Z,23.86
2022-08-26T06:59:48.746Z,24.25
2022-08-26T07:02:18.841Z,24.81
2022-08-26T07:04:47.875Z,25.24
2022-08-26T07:07:15.718Z,25.17
2022-08-26T07:09:43.295Z,25.40
2022-08-26T07:12:10.823Z,27.19
2022-08-26T07:14:38.489Z,28.63
2022-08-26T07:17:10.109Z,29.34
2022-08-26T07:19:40.928Z,29.09
2022-08-26T07:22:08.611Z,30.79
2022-08-26T07:24:41.187Z,31.23
2022-08-26T07:27:13.336Z,30.90
2022-08-26T07:29:42.509Z,30.59
2022-08-26T07:32:11.632Z,30.29
2022-08-26T07:34:41.943Z,29.95
2022-08-26T07:37:10.327Z,29.48
2022-08-26T07:39:38.081Z,29.67
2022-08-26T07:42:09.228Z,29.57
2022-08-26T07:44:37.818Z,29.24
2022-08-26T07:47:19.344Z,29.72
2022-08-26T07:49:56.431Z,29.50
2022-08-26T07:52:26.923Z,29.85
2022-08-26T07:54:58.223Z,29.69
2022-08-26T07:57:29.585Z,28.60
2022-08-26T07:59:59.903Z,29.00
2022-08-26T08:02:29.379Z,29.30
2022-08-26T08:04:58.411Z,28.93
2022-08-26T08:07:44.590Z,28.75
2022-08-26T08:10:16.832Z,29.22
2022-08-26T08:12:44.495Z,28.97
2022-08-26T08:15:13.976Z,28.59
2022-08-26T08:17:47.560Z,29.20
2022-08-26T08:20:18.685Z,28.19
2022-08-26T08:22:46.109Z,28.01
2022-08-26T08:25:14.860Z,27.90
2022-08-26T08:27:45.276Z,27.75
2022-08-26T08:30:14.063Z,26.98
2022-08-26T08:32:43.724Z,26.69
2022-08-26T08:35:17.273Z,26.64
2022-08-26T08:37:50.975Z,27.30
2022-08-26T08:40:18.814Z,26.75
2022-08-26T08:43:09.787Z,26.53
2022-08-26T08:45:49.903Z,26.62
2022-08-26T08:48:28.191Z,27.06
2022-08-26T08:51:27.221Z,26.31
2022-08-26T08:53:56.236Z,26.23
2022-08-26T08:56:26.475Z,26.29
2022-08-26T08:59:06.052Z,25.67
2022-08-26T09:01:52.477Z,27.32
2022-08-26T09:04:36.603Z,26.95
2022-08-26T09:07:13.047Z,26.70
2022-08-26T09:10:09.637Z,26.41
2022-08-26T09:12:40.701Z,27.15
2022-08-26T09:15:27.472Z,27.64
2022-08-26T09:18:11.197Z,27.95
2022-08-26T09:20:56.440Z,28.40
2022-08-26T09:23:25.201Z,28.48
2022-08-26T09:25:57.241Z,29.02
2022-08-26T09:28:27.154Z,27.16
2022-08-26T09:31:20.293Z,26.54
2022-08-26T09:33:48.817Z,26.90
2022-08-26T09:36:24.961Z,29.59
2022-08-26T09:38:54.240Z,31.81
2022-08-26T09:41:28.217Z,33.27
2022-08-26T09:44:20.832Z,33.84
2022-08-26T09:46:59.456Z,32.45
2022-08-26T09:49:37.680Z,33.99
2022-08-26T09:52:24.740Z,30.86
2022-08-26T09:55:22.423Z,32.14
2022-08-26T09:57:55.042Z,30.51
2022-08-26T10:00:31.585Z,29.37
2022-08-26T10:03:01.046Z,30.02
2022-08-26T10:05:37.520Z,29.39
2022-08-26T10:08:23.221Z,28.58
2022-08-26T10:10:53.088Z,28.45
2022-08-26T10:13:32.807Z,28.57
2022-08-26T10:16:14.582Z,29.33
2022-08-26T10:19:04.922Z,29.38
2022-08-26T10:21:39.508Z,28.39
2022-08-26T10:24:11.283Z,29.01
2022-08-26T10:26:45.322Z,29.17
2022-08-26T10:29:29.689Z,28.86
2022-08-26T10:32:31.109Z,28.56
2022-08-26T10:34:58.597Z,29.90
2022-08-26T10:37:36.450Z,30.62
2022-08-26T10:40:55.218Z,29.71
2022-08-26T10:43:28.497Z,31.05
2022-08-26T10:46:08.452Z,32.49
2022-08-26T10:48:44.962Z,31.55
2022-08-26T10:51:13.542Z,31.42
2022-08-26T10:53:51.625Z,33.71
2022-08-26T10:56:24.563Z,32.16
2022-08-26T10:59:29.571Z,32.09
2022-08-26T11:02:11.885Z,32.53
2022-08-26T11:05:00.046Z,32.08
2022-08-26T11:07:43.865Z,32.70
2022-08-26T11:10:38.044Z,30.74
2022-08-26T11:13:07.179Z,31.34
2022-08-26T11:15:40.816Z,30.65
2022-08-26T11:18:12.448Z,30.64
2022-08-26T11:20:47.400Z,30.16
2022-08-26T11:23:20.798Z,29.81
2022-08-26T11:26:16.473Z,29.67
2022-08-26T11:29:04.482Z,30.07
2022-08-26T11:31:39.541Z,29.26
2022-08-26T11:34:12.674Z,29.49
2022-08-26T11:36:46.180Z,29.13
2022-08-26T11:39:55.481Z,29.06
2022-08-26T11:42:24.724Z,28.64
2022-08-26T11:44:58.030Z,28.30
2022-08-26T11:47:31.997Z,27.84
2022-08-26T11:50:11.461Z,28.32
2022-08-26T11:52:39.802Z,28.42
2022-08-26T11:55:14.702Z,28.72
2022-08-26T11:57:45.953Z,28.60
2022-08-26T12:00:22.422Z,28.32
2022-08-26T12:02:52.649Z,28.23
2022-08-26T12:05:31.368Z,28.00
2022-08-26T12:08:22.086Z,27.73
2022-08-26T12:10:49.541Z,28.05
2022-08-26T12:13:26.368Z,28.05
2022-08-26T12:15:56.462Z,28.12
2022-08-26T12:18:34.940Z,28.19
2022-08-26T12:21:13.095Z,27.94
2022-08-26T12:23:47.231Z,28.06
2022-08-26T12:26:30.392Z,28.07
2022-08-26T12:29:19.826Z,27.86
2022-08-26T12:32:14.955Z,28.05
2022-08-26T12:34:44.353Z,28.28
2022-08-26T12:37:14.295Z,28.40
2022-08-26T12:39:44.910Z,28.49
2022-08-26T12:42:12.374Z,28.48
2022-08-26T12:44:53.232Z,28.26
2022-08-26T12:47:43.418Z,28.59
2022-08-26T12:50:31.216Z,28.69
2022-08-26T12:53:10.246Z,28.59
2022-08-26T12:56:41.750Z,28.67
2022-08-26T12:59:18.158Z,28.64
2022-08-26T13:01:46.877Z,28.42
2022-08-26T13:04:34.326Z,28.55
2022-08-26T13:07:26.983Z,28.73
2022-08-26T13:09:57.592Z,28.87
2022-08-26T13:12:31.255Z,28.97
2022-08-26T13:15:00.223Z,28.84
2022-08-26T13:17:29.194Z,28.67
2022-08-26T13:20:02.690Z,28.82
2022-08-26T13:22:31.933Z,28.76
2022-08-26T13:24:59.472Z,28.74
2022-08-26T13:27:27.330Z,28.61
2022-08-26T13:29:57.734Z,28.84
2022-08-26T13:32:27.249Z,28.75
2022-08-26T13:34:56.665Z,28.47
2022-08-26T13:37:24.314Z,28.65
2022-08-26T13:40:05.447Z,28.33
2022-08-26T13:42:33.020Z,28.25
2022-08-26T13:45:02.444Z,28.32
2022-08-26T13:47:31.327Z,28.21
2022-08-26T13:49:58.626Z,28.22
2022-08-26T13:52:30.508Z,28.33
2022-08-26T13:55:00.419Z,28.29
2022-08-26T13:57:30.242Z,28.22
2022-08-26T13:59:59.479Z,28.30
2022-08-26T14:02:28.103Z,28.19
2022-08-26T14:04:56.099Z,28.20
2022-08-26T14:07:23.723Z,28.07
2022-08-26T14:09:51.290Z,28.02
2022-08-26T14:12:18.560Z,28.08
2022-08-26T14:14:45.917Z,28.07
2022-08-26T14:17:21.883Z,28.12
2022-08-26T14:19:50.569Z,28.20
2022-08-26T14:22:19.818Z,28.12
2022-08-26T14:24:47.525Z,28.07
2022-08-26T14:27:14.891Z,28.17
2022-08-26T14:29:42.640Z,28.15
2022-08-26T14:32:21.864Z,28.08
2022-08-26T14:34:50.380Z,28.13
2022-08-26T14:37:18.966Z,28.15
2022-08-26T14:39:46.584Z,28.08
2022-08-26T14:42:17.906Z,27.98
2022-08-26T14:44:48.813Z,27.97
2022-08-26T14:47:16.335Z,27.93
2022-08-26T14:49:43.710Z,27.89
2022-08-26T14:52:10.942Z,27.92
2022-08-26T14:54:38.446Z,27.87
2022-08-26T14:57:08.586Z,27.94
2022-08-26T14:59:40.963Z,27.95
2022-08-26T15:02:13.715Z,27.85
2022-08-26T15:04:57.229Z,27.80
2022-08-26T15:07:24.726Z,27.84
2022-08-26T15:09:51.959Z,27.80
2022-08-26T15:12:19.395Z,27.76
2022-08-26T15:14:47.000Z,27.75
2022-08-26T15:17:14.244Z,27.77
2022-08-26T15:19:41.482Z,27.70
2022-08-26T15:22:09.124Z,27.70
2022-08-26T15:24:36.676Z,27.73
2022-08-26T15:27:04.001Z,27.68
2022-08-26T15:29:31.619Z,27.55
2022-08-26T15:32:04.645Z,27.66
2022-08-26T15:34:32.251Z,27.55
2022-08-26T15:36:59.487Z,27.64
2022-08-26T15:39:27.330Z,27.66
2022-08-26T15:41:56.319Z,27.65
2022-08-26T15:44:25.511Z,27.62
2022-08-26T15:46:58.391Z,27.54
2022-08-26T15:49:26.769Z,27.48
2022-08-26T15:51:54.005Z,27.53
2022-08-26T15:54:23.482Z,27.46
2022-08-26T15:56:52.550Z,27.55
2022-08-26T15:59:21.847Z,27.50
2022-08-26T16:01:50.350Z,27.53
2022-08-26T16:04:18.734Z,27.50
2022-08-26T16:06:50.273Z,27.43
2022-08-26T16:09:19.630Z,27.33
2022-08-26T16:11:49.468Z,27.23
2022-08-26T16:14:16.980Z,27.04
2022-08-26T16:16:44.268Z,26.97
2022-08-26T16:19:11.878Z,27.00
2022-08-26T16:21:40.666Z,26.77
2022-08-26T16:24:08.114Z,26.50
2022-08-26T16:26:37.606Z,26.45
2022-08-26T16:29:10.629Z,26.42
2022-08-26T16:31:38.655Z,26.32
2022-08-26T16:34:07.555Z,26.16
2022-08-26T16:36:36.301Z,26.13
2022-08-26T16:39:05.001Z,26.17
2022-08-26T16:41:32.348Z,26.05
2022-08-26T16:43:59.611Z,25.95
2022-08-26T16:46:27.797Z,25.99
2022-08-26T16:48:57.296Z,25.83
2022-08-26T16:51:27.259Z,25.69
2022-08-26T16:53:55.982Z,25.62
2022-08-26T16:56:27.720Z,25.41
2022-08-26T16:59:06.275Z,25.45
2022-08-26T17:01:33.804Z,25.36
2022-08-26T17:04:01.132Z,25.25
2022-08-26T17:06:28.622Z,25.22
2022-08-26T17:08:55.994Z,25.17
2022-08-26T17:11:23.437Z,25.14
2022-08-26T17:13:50.677Z,25.07
2022-08-26T17:16:19.148Z,25.00
2022-08-26T17:18:47.999Z,24.93
2022-08-26T17:21:15.274Z,24.85
2022-08-26T17:23:43.697Z,24.80
2022-08-26T17:26:12.452Z,24.55
2022-08-26T17:28:40.313Z,24.57
2022-08-26T17:31:08.936Z,24.44
2022-08-26T17:33:36.400Z,24.32
2022-08-26T17:36:06.513Z,24.29
2022-08-26T17:38:33.850Z,24.27
2022-08-26T17:41:01.228Z,24.16
2022-08-26T17:43:28.454Z,24.15
2022-08-26T17:46:06.691Z,24.07
2022-08-26T17:48:36.769Z,24.10
2022-08-26T17:51:12.907Z,23.88
2022-08-26T17:53:41.431Z,23.76
2022-08-26T17:56:11.425Z,23.78
2022-08-26T17:58:39.417Z,23.73
2022-08-26T18:01:06.949Z,23.75
2022-08-26T18:03:35.272Z,23.73
2022-08-26T18:06:04.135Z,23.78
2022-08-26T18:08:31.518Z,23.70
2022-08-26T18:10:59.205Z,23.53
2022-08-26T18:13:26.588Z,23.42
2022-08-26T18:15:54.131Z,23.36
2022-08-26T18:18:21.371Z,23.30
2022-08-26T18:20:51.811Z,23.22
2022-08-26T18:23:20.178Z,23.19
2022-08-26T18:25:47.351Z,23.38
2022-08-26T18:28:14.586Z,23.45
2022-08-26T18:30:43.160Z,23.49
2022-08-26T18:33:12.131Z,23.45
2022-08-26T18:35:40.851Z,23.42
2022-08-26T18:38:11.810Z,23.37
2022-08-26T18:40:42.295Z,23.34
2022-08-26T18:43:10.004Z,23.32
2022-08-26T18:45:37.873Z,23.21
2022-08-26T18:48:05.518Z,23.18
2022-08-26T18:50:33.148Z,23.10
2022-08-26T18:53:01.975Z,23.01
2022-08-26T18:55:29.239Z,23.05
2022-08-26T18:57:56.409Z,23.04
2022-08-26T19:00:23.961Z,22.93
2022-08-26T19:02:51.678Z,22.92
2022-08-26T19:05:19.859Z,22.85
2022-08-26T19:07:47.946Z,22.69
2022-08-26T19:10:15.377Z,22.58
2022-08-26T19:12:42.664Z,22.48
2022-08-26T19:15:11.782Z,22.32
2022-08-26T19:17:38.963Z,22.24
2022-08-26T19:20:06.647Z,22.20
2022-08-26T19:22:34.053Z,22.16
2022-08-26T19:25:01.442Z,22.04
2022-08-26T19:27:29.623Z,21.98
2022-08-26T19:29:57.726Z,21.93
2022-08-26T19:32:25.402Z,21.93
2022-08-26T19:34:53.210Z,21.87
2022-08-26T19:37:21.142Z,21.90
2022-08-26T19:39:48.974Z,22.18
2022-08-26T19:42:16.737Z,22.32
2022-08-26T19:45:03.027Z,22.48
2022-08-26T19:47:30.297Z,22.37
2022-08-26T19:49:57.816Z,22.35
2022-08-26T19:52:30.140Z,22.39
2022-08-26T19:54:58.358Z,22.34
2022-08-26T19:57:25.795Z,22.37
2022-08-26T19:59:52.956Z,22.36
2022-08-26T20:02:20.348Z,22.23
2022-08-26T20:04:47.930Z,22.29
2022-08-26T20:07:18.046Z,22.19
2022-08-26T20:09:47.349Z,22.13
2022-08-26T20:12:15.550Z,22.26
2022-08-26T20:14:43.065Z,22.21
2022-08-26T20:17:11.058Z,22.20
2022-08-26T20:19:57.391Z,22.10
2022-08-26T20:22:24.886Z,22.14
2022-08-26T20:24:52.737Z,22.02
2022-08-26T20:27:22.338Z,21.95
2022-08-26T20:29:49.853Z,21.95
2022-08-26T20:32:19.061Z,21.89
2022-08-26T20:34:46.334Z,21.82
2022-08-26T20:37:13.656Z,21.82
2022-08-26T20:39:41.519Z,21.85
2022-08-26T20:42:20.361Z,22.07
2022-08-26T20:44:54.872Z,22.49
2022-08-26T20:47:22.702Z,22.59
2022-08-26T20:49:52.336Z,22.60
2022-08-26T20:52:20.552Z,22.51
2022-08-26T20:54:47.787Z,22.46
2022-08-26T20:57:15.257Z,22.50
2022-08-26T20:59:43.667Z,22.72
2022-08-26T21:02:10.906Z,22.67
2022-08-26T21:04:38.401Z,22.76
2022-08-26T21:07:05.796Z,22.70
2022-08-26T21:09:33.291Z,22.62
2022-08-26T21:12:00.735Z,22.55
2022-08-26T21:14:28.937Z,22.52
2022-08-26T21:16:57.260Z,22.45
2022-08-26T21:19:24.771Z,22.39
2022-08-26T21:21:52.224Z,22.45
2022-08-26T21:24:19.625Z,22.39
2022-08-26T21:26:47.897Z,22.43
2022-08-26T21:29:15.417Z,22.34
2022-08-26T21:31:46.469Z,22.38
2022-08-26T21:34:17.009Z,22.30
2022-08-26T21:36:46.065Z,22.34
2022-08-26T21:39:14.160Z,22.22
2022-08-26T21:41:43.308Z,22.25
2022-08-26T21:44:11.934Z,22.18
2022-08-26T21:46:39.211Z,22.32
2022-08-26T21:49:08.965Z,22.38
2022-08-26T21:51:42.932Z,22.26
2022-08-26T21:54:12.824Z,22.15
2022-08-26T21:56:46.800Z,22.05
2022-08-26T21:59:16.698Z,22.03
2022-08-26T22:01:44.071Z,21.95
2022-08-26T22:04:11.679Z,22.03
2022-08-26T22:06:45.812Z,22.05
2022-08-26T22:09:14.329Z,22.08
2022-08-26T22:11:42.211Z,22.04
2022-08-26T22:14:10.356Z,21.84
2022-08-26T22:16:37.872Z,21.79
2022-08-26T22:19:05.670Z,21.78
2022-08-26T22:21:34.129Z,21.75
2022-08-26T22:24:02.592Z,21.73
2022-08-26T22:26:32.321Z,21.68
2022-08-26T22:29:00.753Z,21.64
2022-08-26T22:31:37.692Z,21.74
2022-08-26T22:34:11.600Z,21.69
2022-08-26T22:36:44.219Z,21.64
2022-08-26T22:39:17.945Z,21.54
2022-08-26T22:41:46.710Z,21.42
2022-08-26T22:44:15.036Z,21.62
2022-08-26T22:46:43.189Z,21.52
2022-08-26T22:49:12.759Z,21.49
2022-08-26T22:51:40.236Z,21.46
2022-08-26T22:54:08.062Z,21.50
2022-08-26T22:56:36.193Z,21.58
2022-08-26T22:59:04.706Z,21.50
2022-08-26T23:01:35.718Z,21.59
2022-08-26T23:04:03.749Z,21.63
2022-08-26T23:06:31.204Z,21.74
2022-08-26T23:08:58.459Z,21.72
2022-08-26T23:11:25.815Z,21.76
2022-08-26T23:13:53.310Z,21.69
2022-08-26T23:16:21.270Z,21.69
2022-08-26T23:18:48.760Z,21.69
2022-08-26T23:21:16.210Z,21.63
2022-08-26T23:23:45.151Z,21.62
2022-08-26T23:26:16.700Z,21.62
2022-08-26T23:28:45.164Z,21.62
2022-08-26T23:31:12.519Z,21.63
2022-08-26T23:33:58.706Z,21.60
2022-08-26T23:36:26.189Z,21.50
2022-08-26T23:38:53.643Z,21.57
2022-08-26T23:41:24.534Z,21.46
2022-08-26T23:43:52.118Z,21.52
2022-08-26T23:46:19.763Z,21.54
2022-08-26T23:48:47.788Z,21.50
2022-08-26T23:51:33.692Z,21.41
2022-08-26T23:54:00.901Z,21.43
2022-08-26T23:56:29.208Z,21.45
2022-08-26T23:58:56.722Z,21.47
